Aeroporto :







RITROVATECI SU...

 
LOGIN :

Iscrizione | Disclaimer

   EN    FR    IT 

 









Sommario :    VFR   VFR Marginale   IFR   IFR Intensivo   IFR Molto Intensivo
Visibilità : 
Base nubi : 
>= 8 km
>= 3000ft
5 / 8 km
1000 / 3000 ft
1500m / 5 km
500 / 1000 ft
800 / 1500m
200 / 500 ft
< 800m
< 200 ft
Simboli :   Temporali  Nebbia  Neve Forte  Precipitazioni Forti  Vento > 20 kt






- Altitudine del aeroporto : 124 ft
- Codice IATA : YGV


CYGV - Havre St Pierre

ULTIMO METAR :
  • 160610Z AUTO 27030G46KT 9SM BKN060 OVC073 M07/M11 A2890 RMK PRESRR SLP788

METARs OBSOLETI :
  • 160600Z AUTO 27037G44KT 7SM -SN SCT055 OVC072 M07/M11 A2888 RMK SLP783
  • 160531Z AUTO 27034G45KT 6SM -SN FEW018 OVC050 M06/M10 A2885 RMK PRESRR SLP774
  • 160504Z AUTO 26037G47KT 3SM -SN SCT016 OVC033 M05/M09 A2882 RMK SLP764
  • 160446Z AUTO 26036G48KT 1SM -SN SCT016 OVC031 M05/M08 A2882 RMK SLP762
  • 160433Z AUTO 26039G47KT 5/8SM -SN SCT016 OVC025 M05/M08 A2881 RMK SLP758
  • 160400Z AUTO 26036G49KT 3/8SM SN OVC016 M05/M06 A2879 RMK SLP754

TAF AMD TAF CYGV
Valido dal 16 a 04 ore il 16 a 14 ore UTC


160417Z 1604/1614 25025G40KT 21/2SM -SN OVC015
TEMPO 1604/1605 3/4SM -SN BLSN VV010
PROB30 1604/1605 3/4SM -SN BLSN VV006
FM160500 27025G40KT 21/2SM -SN BLSN OVC010
TEMPO 1605/1608 P6SM NSW OVC040
FM160800 27030G45KT P6SM OVC040
FM161200 27030G45KT P6SM SCT040
BECMG 1612/1614 28030G50KT RMK FCST BASED ON AUTO OBS. NXT FCST BY 160800Z



MetMap, La meteo Aeronautica in un colpo d'occhio ! - Copyright ORBIFLY Dicembre 2007 - Disclaimer

ORBIFLY MET'MAP TEAM :

Programmazione e sviluppo : Alexandra Zaïnal
Concezione : Baudouin d'Aumeries
Aiuto per la programmazione : Marc-Olivier Méhu
Supporto tecnico e logistico : Manuel Goepfert
Aiuto per la traduzione : Arnaldo La Scala

Contatto : metmap@orbifly.com




FONTI E CREDITI :

   NOAA